Time;durP1;ratioP1;P1;durP2;ratioP2;P2;SDS_P1;SDS_P2;PMS_P1;PMS_P2;Temp;Humidity;BMP_temperature;BMP_pressure;BME280_temperature;BME280_humidity;BME280_pressure;Samples;Min_cycle;Max_cycle;Signal;HPM_P1;HPM_P2
2023/08/18 00:00:25;;;;;;;4.33;4.00;;;23.10;99.90;;;;;;5016656;28;20219;-73
2023/08/18 00:02:51;;;;;;;4.20;3.87;;;23.10;99.90;;;;;;5037047;28;20226;-73
2023/08/18 00:05:17;;;;;;;4.63;4.30;;;23.10;99.90;;;;;;5006332;28;20224;-73
2023/08/18 00:07:42;;;;;;;4.00;3.70;;;23.00;99.90;;;;;;5005216;28;20230;-73
2023/08/18 00:10:08;;;;;;;4.20;3.67;;;23.00;99.90;;;;;;5004887;28;20223;-73
2023/08/18 00:12:34;;;;;;;4.03;3.73;;;23.00;99.90;;;;;;5003564;28;20223;-74
2023/08/18 00:15:01;;;;;;;5.17;4.63;;;23.00;99.90;;;;;;5021866;28;20807;-73
2023/08/18 00:17:27;;;;;;;4.67;4.07;;;23.00;99.90;;;;;;5020246;28;20227;-73
2023/08/18 00:19:53;;;;;;;4.37;4.03;;;23.00;99.90;;;;;;5036864;28;20652;-73
2023/08/18 00:22:18;;;;;;;5.03;4.60;;;23.00;99.90;;;;;;5037775;28;20259;-73
2023/08/18 00:24:44;;;;;;;4.40;4.00;;;23.00;99.90;;;;;;5003468;28;20231;-73
2023/08/18 00:27:10;;;;;;;4.50;4.10;;;23.00;99.90;;;;;;4994609;28;20403;-73
2023/08/18 00:29:36;;;;;;;5.17;4.13;;;23.00;99.90;;;;;;5001727;28;20330;-73
2023/08/18 00:32:02;;;;;;;7.87;4.27;;;23.00;99.90;;;;;;5003376;28;20235;-73
2023/08/18 00:34:28;;;;;;;6.03;4.50;;;22.90;99.90;;;;;;5003746;28;20508;-73
2023/08/18 00:36:54;;;;;;;4.07;3.77;;;22.90;99.90;;;;;;5036608;28;20518;-73
2023/08/18 00:39:21;;;;;;;4.37;3.93;;;23.00;99.90;;;;;;5002926;28;20223;-73
2023/08/18 00:41:46;;;;;;;4.23;3.83;;;23.00;99.90;;;;;;5020365;28;20495;-73
2023/08/18 00:44:12;;;;;;;4.57;4.17;;;22.90;99.90;;;;;;5003683;28;20334;-73
2023/08/18 00:46:38;;;;;;;4.50;4.10;;;22.90;99.90;;;;;;5021603;28;20234;-74
2023/08/18 00:49:08;;;;;;;7.03;4.20;;;22.90;99.90;;;;;;5003903;28;20226;-73
2023/08/18 00:51:34;;;;;;;4.80;4.37;;;22.90;99.90;;;;;;5003007;28;20395;-73
2023/08/18 00:54:04;;;;;;;4.33;4.00;;;22.90;99.90;;;;;;5037127;28;20465;-73
2023/08/18 00:56:30;;;;;;;4.47;4.00;;;22.90;99.90;;;;;;5001618;28;20504;-73
2023/08/18 00:58:56;;;;;;;4.70;4.30;;;22.80;99.90;;;;;;5005443;28;20461;-74
2023/08/18 01:01:22;;;;;;;4.33;4.00;;;22.80;99.90;;;;;;5003697;28;20343;-73
2023/08/18 01:03:47;;;;;;;4.70;4.30;;;22.80;99.90;;;;;;4986443;28;20247;-73
2023/08/18 01:06:13;;;;;;;6.10;4.40;;;22.70;99.90;;;;;;5020454;28;21037;-74
2023/08/18 01:08:40;;;;;;;3.97;3.67;;;22.80;99.90;;;;;;5004430;28;20288;-74
2023/08/18 01:11:06;;;;;;;4.20;3.90;;;22.70;99.90;;;;;;5002950;28;20228;-73
2023/08/18 01:13:52;;;;;;;5.40;4.90;;;22.70;99.90;;;;;;5001118;28;20597;-73
2023/08/18 01:16:29;;;;;;;4.63;4.27;;;22.70;99.90;;;;;;5004661;28;20225;-73
2023/08/18 01:18:55;;;;;;;6.03;4.63;;;22.70;99.90;;;;;;5021051;28;21086;-73
2023/08/18 01:21:25;;;;;;;7.10;4.50;;;22.70;99.90;;;;;;5022137;28;21078;-73
2023/08/18 01:23:51;;;;;;;5.23;4.50;;;22.60;99.90;;;;;;5023048;28;20514;-73
2023/08/18 01:26:17;;;;;;;4.60;4.27;;;22.60;99.90;;;;;;5023058;28;20468;-73
2023/08/18 01:28:43;;;;;;;5.60;5.10;;;22.60;99.90;;;;;;5024297;28;20216;-73
2023/08/18 01:31:21;;;;;;;4.70;4.30;;;22.60;99.90;;;;;;5026469;28;20219;-74
2023/08/18 01:33:52;;;;;;;5.10;4.70;;;22.60;99.90;;;;;;5015804;28;21006;-73
2023/08/18 01:36:21;;;;;;;5.27;4.80;;;22.50;99.90;;;;;;5023240;28;20474;-73
2023/08/18 01:38:50;;;;;;;5.20;4.70;;;22.50;99.90;;;;;;5007538;28;21212;-73
2023/08/18 01:41:21;;;;;;;5.23;4.83;;;22.50;99.90;;;;;;5006665;28;20470;-73
2023/08/18 01:43:47;;;;;;;4.77;4.33;;;22.50;99.90;;;;;;5024414;28;20464;-73
2023/08/18 01:46:13;;;;;;;5.30;4.90;;;22.50;99.90;;;;;;5024819;28;20463;-73
2023/08/18 01:48:38;;;;;;;6.90;5.20;;;22.50;99.90;;;;;;5005516;28;20293;-73
2023/08/18 01:51:04;;;;;;;5.50;4.70;;;22.50;99.90;;;;;;5005692;28;20289;-73
2023/08/18 01:53:30;;;;;;;4.70;4.30;;;22.40;99.90;;;;;;5004730;28;20850;-73
2023/08/18 01:55:59;;;;;;;5.43;4.67;;;22.40;99.90;;;;;;5006837;28;20226;-73
2023/08/18 01:58:25;;;;;;;5.40;4.90;;;22.40;99.90;;;;;;5040828;28;20225;-73
2023/08/18 02:00:58;;;;;;;5.67;5.10;;;22.40;99.90;;;;;;5023255;28;20487;-73
2023/08/18 02:03:25;;;;;;;6.00;4.87;;;22.40;99.90;;;;;;5002626;28;20216;-73
2023/08/18 02:05:57;;;;;;;5.90;5.10;;;22.40;99.90;;;;;;5006856;28;20465;-73
2023/08/18 02:08:23;;;;;;;6.20;5.63;;;22.40;99.90;;;;;;5023978;28;20464;-74
2023/08/18 02:10:48;;;;;;;5.70;5.20;;;22.40;99.90;;;;;;5003352;28;20461;-73
2023/08/18 02:13:14;;;;;;;5.63;5.07;;;22.40;99.90;;;;;;5006757;28;20609;-73
2023/08/18 02:15:40;;;;;;;6.27;4.67;;;22.40;99.90;;;;;;5037397;28;20233;-73
2023/08/18 02:18:06;;;;;;;5.53;5.03;;;22.30;99.90;;;;;;5022523;28;20933;-73
2023/08/18 02:20:32;;;;;;;5.17;4.70;;;22.30;99.90;;;;;;5040261;28;20227;-73
2023/08/18 02:22:58;;;;;;;5.40;4.90;;;22.30;99.90;;;;;;5039667;28;20738;-73
2023/08/18 02:25:23;;;;;;;6.77;5.60;;;22.30;99.90;;;;;;5006889;28;20211;-74
2023/08/18 02:27:49;;;;;;;5.47;4.60;;;22.30;99.90;;;;;;5005767;28;20235;-73
2023/08/18 02:30:16;;;;;;;5.93;5.20;;;22.30;99.90;;;;;;5004825;28;20232;-73
2023/08/18 02:32:42;;;;;;;6.47;5.80;;;22.30;99.90;;;;;;5020346;28;20228;-73
2023/08/18 02:35:10;;;;;;;5.27;4.87;;;22.30;99.90;;;;;;5019552;28;20537;-73
2023/08/18 02:37:36;;;;;;;6.70;5.10;;;22.30;99.90;;;;;;5021785;28;21137;-73
2023/08/18 02:40:01;;;;;;;8.03;5.40;;;22.30;99.90;;;;;;5023089;28;20818;-73
2023/08/18 02:42:27;;;;;;;5.43;5.03;;;22.30;99.90;;;;;;5037013;28;20263;-73
2023/08/18 02:44:53;;;;;;;10.57;5.40;;;22.30;99.90;;;;;;5006985;28;20255;-73
2023/08/18 02:47:19;;;;;;;8.13;5.60;;;22.30;99.90;;;;;;5005654;28;20251;-73
2023/08/18 02:49:47;;;;;;;5.80;5.40;;;22.30;99.90;;;;;;5006930;28;20307;-73
2023/08/18 02:52:13;;;;;;;8.40;6.20;;;22.20;99.90;;;;;;5036094;28;20223;-73
2023/08/18 02:54:38;;;;;;;6.33;5.13;;;22.20;99.90;;;;;;5012426;28;20502;-73
2023/08/18 02:57:04;;;;;;;5.60;5.10;;;22.20;99.90;;;;;;4997299;28;20235;-73
2023/08/18 02:59:30;;;;;;;6.23;5.40;;;22.20;99.90;;;;;;4992919;28;20220;-73
2023/08/18 03:01:55;;;;;;;5.50;5.00;;;22.20;99.90;;;;;;4989296;28;20229;-73
2023/08/18 03:04:22;;;;;;;7.17;6.50;;;22.20;99.90;;;;;;5031941;28;20795;-73
2023/08/18 03:06:48;;;;;;;8.40;5.23;;;22.20;99.90;;;;;;4995415;28;20485;-73
2023/08/18 03:09:13;;;;;;;6.53;5.10;;;22.20;99.90;;;;;;5029637;28;20224;-73
2023/08/18 03:11:39;;;;;;;5.80;5.30;;;22.10;99.90;;;;;;4996124;28;20220;-73
2023/08/18 03:14:05;;;;;;;7.93;5.17;;;22.10;99.90;;;;;;4995642;28;20564;-73
2023/08/18 03:16:31;;;;;;;6.00;5.40;;;22.10;99.90;;;;;;5011635;28;20693;-73
2023/08/18 03:18:56;;;;;;;6.00;5.40;;;22.10;99.90;;;;;;4998321;28;20219;-73
2023/08/18 03:21:22;;;;;;;7.13;6.03;;;22.00;99.90;;;;;;4996591;28;20230;-73
2023/08/18 03:23:48;;;;;;;6.60;5.83;;;22.10;99.90;;;;;;4993744;28;20215;-73
2023/08/18 03:26:14;;;;;;;6.57;5.40;;;22.00;99.90;;;;;;5026358;28;20230;-73
2023/08/18 03:28:40;;;;;;;5.80;5.30;;;22.00;99.90;;;;;;4993886;28;20365;-73
2023/08/18 03:31:07;;;;;;;8.70;5.87;;;22.00;99.90;;;;;;4997186;28;20465;-73
2023/08/18 03:33:34;;;;;;;6.47;5.87;;;21.90;99.90;;;;;;4993848;28;20223;-73
2023/08/18 03:36:02;;;;;;;6.40;5.63;;;21.90;99.90;;;;;;4998720;28;20469;-73
2023/08/18 03:38:29;;;;;;;5.67;5.20;;;21.90;99.90;;;;;;4992289;28;20917;-73
2023/08/18 03:41:02;;;;;;;8.07;5.73;;;21.90;99.90;;;;;;4996888;28;20559;-73
2023/08/18 03:43:28;;;;;;;5.70;5.20;;;21.90;99.90;;;;;;5010682;28;20472;-73
2023/08/18 03:46:02;;;;;;;6.20;5.20;;;21.80;99.90;;;;;;4993567;28;20461;-73
2023/08/18 03:48:28;;;;;;;8.23;6.13;;;21.70;99.90;;;;;;4988497;28;20293;-73
2023/08/18 03:50:56;;;;;;;6.10;5.40;;;21.60;99.90;;;;;;5011349;28;20542;-73
2023/08/18 03:53:23;;;;;;;5.67;5.17;;;21.70;99.90;;;;;;5029262;28;20466;-73
2023/08/18 03:55:56;;;;;;;7.23;5.90;;;21.70;99.90;;;;;;4991772;28;20216;-73
2023/08/18 03:58:22;;;;;;;5.87;5.37;;;21.70;99.90;;;;;;5012454;28;20481;-73
2023/08/18 04:00:48;;;;;;;5.87;5.37;;;21.70;99.90;;;;;;5008172;28;20461;-73
2023/08/18 04:03:14;;;;;;;7.47;6.67;;;21.70;99.90;;;;;;5030130;28;20216;-73
2023/08/18 04:05:46;;;;;;;5.80;5.27;;;21.70;99.90;;;;;;4994681;28;20216;-73
2023/08/18 04:08:12;;;;;;;8.40;5.53;;;21.60;99.90;;;;;;4998396;28;20477;-74
2023/08/18 04:10:38;;;;;;;6.50;5.90;;;21.60;99.90;;;;;;5010156;28;20449;-73
2023/08/18 04:13:04;;;;;;;6.13;5.57;;;21.60;99.90;;;;;;4995382;28;20250;-73
2023/08/18 04:15:32;;;;;;;6.37;5.70;;;21.60;99.90;;;;;;4993026;28;20463;-73
2023/08/18 04:17:57;;;;;;;6.80;5.77;;;21.60;99.90;;;;;;4997393;28;20585;-74
2023/08/18 04:20:23;;;;;;;6.67;5.83;;;21.60;99.90;;;;;;4997058;28;20232;-73
2023/08/18 04:22:49;;;;;;;6.07;5.47;;;21.60;99.90;;;;;;5009375;28;20242;-73
2023/08/18 04:25:15;;;;;;;7.30;5.80;;;21.60;99.90;;;;;;5013098;28;20344;-73
2023/08/18 04:27:41;;;;;;;6.10;5.50;;;21.60;99.90;;;;;;4992784;28;20254;-73
2023/08/18 04:30:08;;;;;;;6.50;5.93;;;21.50;99.90;;;;;;5026621;28;21121;-73
2023/08/18 04:32:34;;;;;;;6.57;5.70;;;21.50;99.90;;;;;;4991612;28;20227;-73
2023/08/18 04:35:01;;;;;;;6.20;5.60;;;21.50;99.90;;;;;;4997856;28;20470;-73
2023/08/18 04:37:28;;;;;;;11.47;5.83;;;21.50;99.90;;;;;;4991927;28;20273;-73
2023/08/18 04:39:54;;;;;;;6.50;5.50;;;21.50;99.90;;;;;;4997846;28;20465;-73
2023/08/18 04:42:20;;;;;;;6.10;5.53;;;21.40;99.90;;;;;;4996413;28;20495;-73
2023/08/18 04:44:46;;;;;;;6.20;5.70;;;21.40;99.90;;;;;;4993751;28;20466;-73
2023/08/18 04:47:12;;;;;;;6.57;5.97;;;21.40;99.90;;;;;;5012550;28;20322;-73
2023/08/18 04:49:38;;;;;;;9.37;6.27;;;21.40;99.90;;;;;;4989321;28;20559;-73
2023/08/18 04:52:07;;;;;;;6.07;5.50;;;21.40;99.90;;;;;;4996425;28;20476;-73
2023/08/18 04:54:33;;;;;;;8.30;6.40;;;21.40;99.90;;;;;;5033948;28;20489;-73
2023/08/18 04:56:59;;;;;;;6.60;6.00;;;21.40;99.90;;;;;;5021265;28;20499;-73
2023/08/18 04:59:26;;;;;;;7.30;5.90;;;21.40;99.90;;;;;;5001695;28;20226;-73
2023/08/18 05:01:53;;;;;;;6.77;6.07;;;21.40;99.90;;;;;;5016032;28;20578;-71
2023/08/18 05:04:19;;;;;;;6.00;5.40;;;21.40;99.90;;;;;;4995791;28;20995;-73
2023/08/18 05:06:44;;;;;;;5.60;5.03;;;21.40;99.90;;;;;;5016091;28;20301;-73
2023/08/18 05:09:10;;;;;;;6.60;6.00;;;21.30;99.90;;;;;;5015768;28;20685;-73
2023/08/18 05:11:36;;;;;;;6.50;5.90;;;21.40;99.90;;;;;;4998244;28;20285;-72
2023/08/18 05:14:02;;;;;;;6.30;5.67;;;21.40;99.90;;;;;;4998275;28;20270;-73
2023/08/18 05:16:28;;;;;;;6.37;5.77;;;21.40;99.90;;;;;;5030795;28;20225;-73
2023/08/18 05:18:53;;;;;;;7.10;6.03;;;21.40;99.90;;;;;;4999940;28;20490;-73
2023/08/18 05:21:19;;;;;;;8.20;6.43;;;21.40;99.90;;;;;;5000561;28;20693;-73
2023/08/18 05:23:45;;;;;;;10.23;6.40;;;21.40;99.90;;;;;;5017601;28;20229;-71
2023/08/18 05:26:10;;;;;;;8.53;6.37;;;21.40;99.90;;;;;;5014735;28;20265;-73
2023/08/18 05:28:36;;;;;;;6.10;5.50;;;21.40;99.90;;;;;;5001751;28;20215;-73
2023/08/18 05:31:02;;;;;;;6.17;5.43;;;21.50;99.90;;;;;;4997612;28;20289;-73
2023/08/18 05:33:28;;;;;;;6.20;5.60;;;21.50;99.90;;;;;;4968071;28;20235;-73
2023/08/18 05:35:57;;;;;;;6.00;5.40;;;21.50;99.90;;;;;;4981506;28;20224;-73
2023/08/18 05:38:23;;;;;;;8.43;6.53;;;21.50;99.90;;;;;;4996386;28;20362;-73
2023/08/18 05:40:49;;;;;;;11.90;7.20;;;21.50;99.90;;;;;;4963077;28;20545;-73
2023/08/18 05:43:18;;;;;;;7.10;6.40;;;21.50;99.90;;;;;;4999970;28;20224;-73
2023/08/18 05:45:46;;;;;;;8.00;6.57;;;21.50;99.90;;;;;;4962178;28;20854;-73
2023/08/18 05:48:12;;;;;;;6.57;5.90;;;21.50;99.90;;;;;;4963938;28;20559;-73
2023/08/18 05:50:38;;;;;;;7.07;6.33;;;21.50;99.90;;;;;;4963472;28;20494;-73
2023/08/18 05:53:04;;;;;;;7.53;6.73;;;21.50;99.90;;;;;;4966885;28;21011;-73
2023/08/18 05:55:31;;;;;;;8.37;5.80;;;21.50;99.90;;;;;;4964728;28;20215;-73
2023/08/18 05:58:02;;;;;;;6.93;6.23;;;21.50;99.90;;;;;;4997688;28;20469;-73
2023/08/18 06:00:29;;;;;;;6.37;5.67;;;21.50;99.90;;;;;;4965556;28;20479;-73
2023/08/18 06:02:56;;;;;;;9.73;6.60;;;21.60;99.90;;;;;;4983593;28;20533;-73
2023/08/18 06:05:23;;;;;;;7.63;5.40;;;21.60;99.90;;;;;;4996410;28;20520;-73
2023/08/18 06:07:49;;;;;;;7.90;6.03;;;21.60;99.90;;;;;;4963624;28;20522;-73
2023/08/18 06:10:14;;;;;;;9.13;6.20;;;21.60;99.90;;;;;;4957491;28;20469;-73
2023/08/18 06:12:40;;;;;;;6.40;5.80;;;21.60;99.90;;;;;;4978718;28;20482;-73
2023/08/18 06:15:08;;;;;;;7.93;6.30;;;21.70;99.90;;;;;;4995066;28;20656;-73
2023/08/18 06:17:34;;;;;;;7.27;6.47;;;21.70;99.90;;;;;;5006569;28;20251;-73
2023/08/18 06:20:00;;;;;;;6.97;6.27;;;21.70;99.90;;;;;;4990215;28;20552;-73
2023/08/18 06:22:26;;;;;;;8.60;6.10;;;21.80;99.90;;;;;;5003325;28;20481;-73
2023/08/18 06:24:51;;;;;;;6.93;6.00;;;21.80;99.90;;;;;;5005167;28;20591;-73
2023/08/18 06:27:17;;;;;;;7.10;5.80;;;21.80;99.90;;;;;;5007219;28;20408;-73
2023/08/18 06:29:43;;;;;;;5.90;5.40;;;21.90;99.90;;;;;;5004735;28;21175;-73
2023/08/18 06:32:09;;;;;;;6.20;5.60;;;21.90;99.90;;;;;;4986679;28;20223;-73
2023/08/18 06:34:34;;;;;;;9.37;5.77;;;22.00;99.90;;;;;;5007230;28;20222;-74
2023/08/18 06:37:00;;;;;;;6.20;5.53;;;22.00;99.90;;;;;;5001000;28;20258;-73
2023/08/18 06:39:26;;;;;;;5.70;5.20;;;22.00;99.90;;;;;;5003492;28;20223;-73
2023/08/18 06:41:52;;;;;;;6.93;6.30;;;22.00;99.90;;;;;;4989453;28;20235;-73
2023/08/18 06:44:19;;;;;;;8.50;6.47;;;22.10;99.90;;;;;;5005075;28;20309;-73
2023/08/18 06:46:44;;;;;;;5.73;5.00;;;22.10;99.90;;;;;;5005237;28;20515;-74
2023/08/18 06:49:10;;;;;;;5.73;5.23;;;22.20;99.90;;;;;;5005303;28;20501;-74
2023/08/18 06:51:36;;;;;;;6.63;5.93;;;22.20;99.90;;;;;;4989561;28;20973;-73
2023/08/18 06:54:01;;;;;;;9.63;6.10;;;22.30;99.90;;;;;;4987943;28;20577;-74
2023/08/18 06:56:27;;;;;;;7.80;5.70;;;22.30;99.90;;;;;;5002962;28;20895;-73
2023/08/18 06:58:53;;;;;;;7.07;5.83;;;22.40;99.90;;;;;;5003434;28;20268;-73
2023/08/18 07:01:19;;;;;;;5.70;5.20;;;22.40;99.90;;;;;;4990078;28;20231;-73
2023/08/18 07:03:45;;;;;;;6.97;6.30;;;22.50;99.90;;;;;;4984053;28;20437;-74
2023/08/18 07:06:11;;;;;;;7.20;5.90;;;22.50;99.90;;;;;;5002972;28;20941;-73
2023/08/18 07:08:36;;;;;;;6.90;6.30;;;22.50;99.90;;;;;;4989828;28;20554;-73
2023/08/18 07:11:02;;;;;;;6.03;5.50;;;22.50;99.90;;;;;;4987837;28;20212;-73
2023/08/18 07:13:28;;;;;;;7.63;6.20;;;22.60;99.90;;;;;;4985238;28;20295;-73
2023/08/18 07:15:54;;;;;;;10.00;5.80;;;22.60;99.90;;;;;;4985044;28;20555;-73
2023/08/18 07:18:20;;;;;;;7.97;5.37;;;22.70;99.90;;;;;;5005639;28;20234;-73
2023/08/18 07:20:46;;;;;;;8.00;6.57;;;22.70;99.90;;;;;;5003913;28;20831;-73
2023/08/18 07:23:12;;;;;;;6.10;5.60;;;22.80;99.90;;;;;;5001668;28;20242;-73
2023/08/18 07:25:41;;;;;;;7.00;6.30;;;22.80;99.90;;;;;;5002788;28;20492;-73
2023/08/18 07:28:07;;;;;;;8.23;6.40;;;22.90;99.90;;;;;;4991947;28;20233;-73
2023/08/18 07:30:32;;;;;;;7.83;6.60;;;23.00;99.90;;;;;;4984944;28;20466;-73
2023/08/18 07:32:58;;;;;;;6.80;6.10;;;23.10;99.90;;;;;;4983404;28;20223;-73
2023/08/18 07:35:24;;;;;;;5.80;5.30;;;23.10;99.90;;;;;;4987766;28;20233;-73
2023/08/18 07:37:53;;;;;;;7.83;6.13;;;23.20;99.90;;;;;;4987234;28;20219;-73
2023/08/18 07:40:19;;;;;;;7.67;6.17;;;23.20;99.90;;;;;;4984257;28;20316;-74
2023/08/18 07:42:45;;;;;;;5.93;5.43;;;23.30;99.90;;;;;;4984735;28;21227;-73
2023/08/18 07:45:10;;;;;;;7.20;6.50;;;23.40;99.90;;;;;;4986555;28;20214;-73
2023/08/18 07:47:38;;;;;;;6.37;5.87;;;23.50;99.90;;;;;;5002453;28;20238;-73
2023/08/18 07:50:06;;;;;;;8.03;6.03;;;23.50;99.90;;;;;;5000564;28;21171;-73
2023/08/18 07:52:31;;;;;;;7.37;6.60;;;23.50;99.90;;;;;;4984853;28;20473;-73
2023/08/18 07:54:57;;;;;;;7.33;6.30;;;23.60;99.90;;;;;;4989056;28;20457;-73
2023/08/18 07:57:22;;;;;;;5.90;5.20;;;23.70;99.90;;;;;;5003092;28;20232;-74
2023/08/18 07:59:48;;;;;;;6.60;5.60;;;23.80;99.90;;;;;;4985517;28;20229;-74
2023/08/18 08:02:14;;;;;;;6.20;5.60;;;23.90;99.90;;;;;;4987749;28;20373;-74
2023/08/18 08:04:40;;;;;;;5.93;5.43;;;23.90;99.90;;;;;;4984933;28;20226;-73
2023/08/18 08:07:06;;;;;;;6.93;6.23;;;23.90;99.90;;;;;;5002082;28;20231;-74
2023/08/18 08:09:32;;;;;;;7.47;6.10;;;24.00;99.90;;;;;;4982310;28;20822;-74
2023/08/18 08:11:57;;;;;;;6.67;6.07;;;24.10;99.90;;;;;;4988784;28;20529;-74
2023/08/18 08:14:23;;;;;;;7.70;6.20;;;24.20;99.90;;;;;;4983484;28;20314;-73
2023/08/18 08:16:49;;;;;;;6.53;5.97;;;24.10;99.90;;;;;;4963301;28;20285;-73
2023/08/18 08:19:15;;;;;;;7.03;6.40;;;24.20;99.90;;;;;;4965087;28;20230;-74
2023/08/18 08:21:41;;;;;;;6.97;6.27;;;24.20;99.90;;;;;;4980137;28;20397;-74
2023/08/18 08:24:07;;;;;;;6.90;6.30;;;24.40;99.90;;;;;;4996469;28;20216;-73
2023/08/18 08:26:33;;;;;;;6.87;6.27;;;24.40;99.90;;;;;;4981288;28;21117;-73
2023/08/18 08:28:59;;;;;;;6.30;5.80;;;24.40;99.90;;;;;;4967251;28;20231;-73
2023/08/18 08:31:24;;;;;;;7.67;6.33;;;24.60;99.90;;;;;;4979318;28;20577;-74
2023/08/18 08:33:50;;;;;;;6.37;5.77;;;24.80;99.90;;;;;;4979900;28;20228;-74
2023/08/18 08:36:15;;;;;;;6.40;5.80;;;24.80;99.90;;;;;;4966818;28;20280;-74
2023/08/18 08:38:42;;;;;;;7.13;6.00;;;24.80;99.90;;;;;;4980532;28;20219;-74
2023/08/18 08:41:08;;;;;;;7.23;6.10;;;24.90;99.90;;;;;;4979187;28;20235;-74
2023/08/18 08:43:34;;;;;;;7.80;7.10;;;25.00;99.90;;;;;;4966636;28;20470;-74
2023/08/18 08:46:00;;;;;;;6.80;6.20;;;25.00;99.90;;;;;;4997276;28;20849;-74
2023/08/18 08:48:40;;;;;;;7.57;6.77;;;25.20;99.90;;;;;;4962062;28;20458;-74
2023/08/18 08:51:10;;;;;;;7.30;6.60;;;25.20;99.90;;;;;;4965349;28;20215;-73
2023/08/18 08:53:40;;;;;;;6.90;6.33;;;25.40;99.90;;;;;;4965379;28;20616;-74
2023/08/18 08:56:07;;;;;;;8.33;7.50;;;25.40;99.90;;;;;;4965741;28;20569;-74
2023/08/18 08:58:34;;;;;;;7.80;6.17;;;25.30;99.90;;;;;;4996335;28;20474;-74
2023/08/18 09:01:01;;;;;;;6.87;6.17;;;25.40;99.90;;;;;;4981803;28;20459;-74
2023/08/18 09:03:29;;;;;;;8.50;6.57;;;25.50;99.90;;;;;;4996214;28;20459;-73
2023/08/18 09:05:56;;;;;;;7.57;6.87;;;25.70;99.90;;;;;;4961837;28;21041;-73
2023/08/18 09:08:21;;;;;;;7.00;6.30;;;25.80;99.90;;;;;;4963081;28;20473;-74
2023/08/18 09:10:48;;;;;;;6.53;5.93;;;25.80;99.90;;;;;;4963199;28;20457;-74
2023/08/18 09:13:14;;;;;;;7.30;6.60;;;26.00;99.90;;;;;;4980973;28;20230;-74
2023/08/18 09:15:47;;;;;;;10.03;6.50;;;26.00;99.90;;;;;;4977864;28;20494;-73
2023/08/18 09:18:14;;;;;;;6.93;6.33;;;26.10;99.90;;;;;;4966248;28;20249;-72
2023/08/18 09:20:43;;;;;;;6.63;6.00;;;26.00;99.90;;;;;;4965366;28;21230;-74
2023/08/18 09:23:09;;;;;;;7.17;6.57;;;26.10;99.90;;;;;;4963492;28;20999;-74
2023/08/18 09:25:34;;;;;;;8.27;7.47;;;26.30;99.90;;;;;;4979405;28;20478;-74
2023/08/18 09:28:03;;;;;;;7.60;6.90;;;26.40;99.90;;;;;;4968011;28;20227;-74
2023/08/18 09:30:33;;;;;;;7.23;6.10;;;26.50;99.90;;;;;;4981210;28;20234;-74
2023/08/18 09:33:03;;;;;;;7.30;6.60;;;26.60;99.90;;;;;;4963945;28;20467;-74
2023/08/18 09:35:35;;;;;;;7.60;6.90;;;26.70;99.90;;;;;;4983243;28;20573;-74
2023/08/18 09:38:01;;;;;;;7.27;6.50;;;26.50;99.90;;;;;;4967512;28;20627;-74
2023/08/18 09:40:28;;;;;;;6.90;6.40;;;26.40;99.90;;;;;;4979280;28;20473;-74
2023/08/18 09:42:54;;;;;;;7.20;6.50;;;26.60;99.90;;;;;;4996089;28;20478;-74
2023/08/18 09:45:26;;;;;;;7.13;6.47;;;26.80;99.90;;;;;;4969569;28;20980;-74
2023/08/18 09:47:56;;;;;;;7.70;7.00;;;27.00;99.90;;;;;;4963275;28;20489;-74
2023/08/18 09:50:27;;;;;;;7.73;6.87;;;27.20;99.90;;;;;;4997109;28;20493;-74
2023/08/18 09:52:57;;;;;;;8.20;6.90;;;27.30;99.90;;;;;;4975100;28;20906;-74
2023/08/18 09:55:42;;;;;;;8.40;7.37;;;27.30;99.90;;;;;;4973857;28;20478;-74
2023/08/18 09:58:20;;;;;;;7.73;7.13;;;27.30;99.90;;;;;;5004400;28;20551;-74
2023/08/18 10:00:47;;;;;;;6.63;6.13;;;27.40;99.90;;;;;;5003581;28;20232;-74
2023/08/18 10:03:16;;;;;;;6.40;5.90;;;27.50;99.90;;;;;;4966086;28;20227;-74
2023/08/18 10:05:43;;;;;;;9.02;6.68;;;27.50;99.90;;;;;;4965671;28;20354;-74
2023/08/18 10:08:08;;;;;;;7.03;6.53;;;27.50;99.90;;;;;;4983619;28;20228;-74
2023/08/18 10:10:35;;;;;;;7.55;6.95;;;27.80;99.90;;;;;;4970221;28;20262;-74
2023/08/18 10:13:01;;;;;;;6.68;6.18;;;28.20;99.90;;;;;;4982501;28;20232;-74
2023/08/18 10:15:28;;;;;;;6.65;6.00;;;28.30;99.90;;;;;;4964701;28;20223;-74
2023/08/18 10:17:53;;;;;;;7.32;6.63;;;28.40;99.90;;;;;;4996715;28;20228;-74
2023/08/18 10:20:19;;;;;;;6.25;5.75;;;28.40;99.90;;;;;;5000545;28;20245;-75
2023/08/18 10:22:45;;;;;;;6.85;6.15;;;28.50;99.90;;;;;;4966477;28;20260;-74
2023/08/18 10:25:23;;;;;;;7.00;6.43;;;28.50;99.90;;;;;;4966323;28;20259;-74
2023/08/18 10:27:49;;;;;;;6.72;6.18;;;28.60;99.90;;;;;;4982332;28;20361;-74
2023/08/18 10:30:14;;;;;;;6.30;5.70;;;28.50;99.90;;;;;;4968145;28;20212;-74
2023/08/18 10:32:41;;;;;;;5.57;5.15;;;28.50;99.90;;;;;;4979364;28;21032;-74
2023/08/18 10:35:26;;;;;;;6.43;5.82;;;28.60;99.90;;;;;;4963225;28;20224;-74
2023/08/18 10:38:03;;;;;;;7.45;6.75;;;28.60;99.90;;;;;;4974775;28;20235;-74
2023/08/18 10:40:36;;;;;;;6.22;5.72;;;28.80;99.90;;;;;;4981146;28;20270;-74
2023/08/18 10:43:03;;;;;;;6.45;5.80;;;28.80;99.90;;;;;;4963527;28;20250;-74
2023/08/18 10:45:30;;;;;;;6.30;5.80;;;29.00;99.90;;;;;;4966111;28;20609;-74
2023/08/18 10:48:01;;;;;;;6.28;5.68;;;29.20;99.90;;;;;;4966551;28;20236;-75
2023/08/18 10:50:29;;;;;;;8.00;6.03;;;29.30;99.90;;;;;;4979182;28;20293;-75
2023/08/18 10:52:56;;;;;;;7.82;6.15;;;29.30;99.90;;;;;;4996358;28;20603;-74
2023/08/18 10:55:25;;;;;;;6.55;6.05;;;29.40;99.90;;;;;;4983864;28;20393;-74
2023/08/18 10:57:51;;;;;;;6.57;6.07;;;29.30;99.90;;;;;;4969457;28;20362;-74
2023/08/18 11:00:18;;;;;;;6.65;6.05;;;29.10;99.90;;;;;;4994775;28;20228;-74
2023/08/18 11:02:51;;;;;;;8.07;5.63;;;29.00;99.90;;;;;;4984212;28;20270;-75
2023/08/18 11:05:19;;;;;;;5.80;5.40;;;29.00;99.90;;;;;;5003588;28;20261;-74
2023/08/18 11:07:44;;;;;;;6.03;5.13;;;29.10;99.90;;;;;;4983400;28;20223;-74
2023/08/18 11:10:18;;;;;;;6.43;5.93;;;29.40;99.90;;;;;;4996869;28;20923;-75
2023/08/18 11:12:45;;;;;;;5.15;4.75;;;29.70;99.90;;;;;;4986728;28;20451;-73
2023/08/18 11:15:12;;;;;;;6.85;5.22;;;29.90;99.90;;;;;;5003680;28;20256;-74
2023/08/18 11:17:38;;;;;;;5.93;5.50;;;29.90;99.90;;;;;;4966277;28;20359;-74
2023/08/18 11:20:07;;;;;;;6.68;6.18;;;30.10;99.90;;;;;;4985033;28;20242;-75
2023/08/18 11:22:36;;;;;;;6.57;5.97;;;30.10;99.90;;;;;;4987959;28;20338;-74
2023/08/18 11:25:04;;;;;;;5.78;5.28;;;30.10;99.90;;;;;;4985629;28;20331;-74
2023/08/18 11:27:30;;;;;;;6.90;6.20;;;30.10;99.90;;;;;;5000356;28;20227;-77
2023/08/18 11:29:57;;;;;;;6.65;6.05;;;30.10;99.90;;;;;;5000537;28;20219;-73
2023/08/18 11:32:23;;;;;;;6.95;6.25;;;29.90;99.90;;;;;;4999598;28;20229;-74
2023/08/18 11:34:48;;;;;;;6.03;5.53;;;29.80;99.90;;;;;;5037746;28;20220;-74
2023/08/18 11:37:14;;;;;;;6.47;5.85;;;29.80;99.90;;;;;;4984321;28;20309;-75
2023/08/18 11:39:40;;;;;;;5.60;5.18;;;29.90;99.90;;;;;;4986230;28;20264;-74
2023/08/18 11:42:05;;;;;;;5.75;5.35;;;30.00;99.90;;;;;;5000833;28;20344;-74
2023/08/18 11:44:34;;;;;;;6.45;5.85;;;30.10;99.90;;;;;;4984140;28;20270;-74
2023/08/18 11:47:00;;;;;;;6.63;5.95;;;30.10;99.90;;;;;;5001065;28;20338;-74
2023/08/18 11:49:26;;;;;;;6.03;5.53;;;30.10;99.90;;;;;;4984177;28;21024;-75
2023/08/18 11:52:05;;;;;;;7.32;5.63;;;30.30;99.90;;;;;;4987376;28;20228;-74
2023/08/18 11:54:35;;;;;;;6.53;5.93;;;30.50;99.90;;;;;;4978207;28;20227;-74
2023/08/18 11:57:05;;;;;;;6.15;5.55;;;30.90;99.90;;;;;;4983890;28;20228;-74
2023/08/18 11:59:32;;;;;;;6.03;5.53;;;30.80;99.90;;;;;;4981943;28;20381;-75
2023/08/18 12:02:00;;;;;;;6.10;5.60;;;30.50;99.90;;;;;;4981863;28;20737;-74
2023/08/18 12:04:30;;;;;;;8.25;5.95;;;30.40;99.90;;;;;;4981123;28;20769;-75
2023/08/18 12:06:56;;;;;;;5.50;5.05;;;30.70;99.90;;;;;;4996550;28;20844;-74
2023/08/18 12:09:22;;;;;;;6.13;5.57;;;30.70;99.90;;;;;;4979641;28;20219;-74
2023/08/18 12:11:49;;;;;;;5.18;4.78;;;30.60;99.90;;;;;;4980100;28;20283;-74
2023/08/18 12:14:15;;;;;;;6.35;5.03;;;30.50;99.90;;;;;;4984865;28;20380;-75
2023/08/18 12:16:41;;;;;;;7.75;6.20;;;30.70;99.90;;;;;;4978543;28;21026;-74
2023/08/18 12:19:07;;;;;;;6.03;5.53;;;31.00;99.90;;;;;;4982124;28;20220;-74
2023/08/18 12:21:36;;;;;;;8.45;5.82;;;30.90;99.90;;;;;;4983706;28;20253;-74
2023/08/18 12:24:05;;;;;;;6.57;6.00;;;30.90;99.90;;;;;;4959692;28;20462;-74
2023/08/18 12:26:34;;;;;;;7.95;5.32;;;30.70;99.90;;;;;;4998035;28;20355;-74
2023/08/18 12:29:01;;;;;;;6.97;5.90;;;30.60;99.90;;;;;;4983346;28;20346;-74
2023/08/18 12:31:27;;;;;;;6.80;6.30;;;30.80;99.90;;;;;;4983177;28;21086;-74
2023/08/18 12:33:53;;;;;;;5.30;4.85;;;30.80;99.90;;;;;;4963587;28;20626;-75
2023/08/18 12:36:21;;;;;;;6.05;5.38;;;30.80;99.90;;;;;;4964964;28;20254;-74
2023/08/18 12:38:47;;;;;;;6.05;5.35;;;30.90;99.90;;;;;;4965824;28;20223;-74
2023/08/18 12:41:14;;;;;;;6.15;5.55;;;31.00;99.90;;;;;;4964884;28;20230;-74
2023/08/18 12:43:40;;;;;;;5.65;5.05;;;31.10;99.90;;;;;;4962359;28;20232;-75